createdAt,value
2022-10-27T00:01:16.672Z,16.377045436114805
2022-10-27T00:04:17.148Z,16.349425669969058
2022-10-27T00:07:17.488Z,16.34364478974685
2022-10-27T00:11:15.661Z,16.325659831411123
2022-10-27T00:14:16.099Z,16.286478327380973
2022-10-27T00:17:16.028Z,16.195911309055464
2022-10-27T00:21:18.305Z,16.238946689468868
2022-10-27T00:24:16.901Z,16.15416058637202
2022-10-27T00:27:16.774Z,16.152233630404318
2022-10-27T00:31:18.499Z,16.11819074839004
2022-10-27T00:34:16.883Z,16.05652820217074
2022-10-27T00:37:16.134Z,16.050105022683056
2022-10-27T00:41:25.246Z,16.067447608343446
2022-10-27T00:44:35.722Z,15.966603730725183
2022-10-27T00:47:21.538Z,15.97238458692309
2022-10-27T00:51:17.651Z,15.959538240316851
2022-10-27T00:54:18.934Z,15.95375738493749
2022-10-27T00:57:17.850Z,15.916502992439565
2022-10-27T01:01:16.869Z,15.94861884713173
2022-10-27T01:04:19.773Z,15.898518118777792
2022-10-27T01:07:19.455Z,15.849702051096028
2022-10-27T01:11:16.032Z,15.917145309421993
2022-10-27T01:14:16.673Z,15.914576041519558
2022-10-27T01:17:31.709Z,15.849059734591084
2022-10-27T01:21:38.791Z,15.864475331964877
2022-10-27T01:25:03.359Z,15.822082445489741
2022-10-27T01:27:52.878Z,15.788682003430676
2022-10-27T01:31:21.895Z,15.833644139836633
2022-10-27T01:34:28.492Z,15.84006730399933
2022-10-27T01:37:23.047Z,15.811805385084972
2022-10-27T01:41:22.573Z,15.804739906731992
2022-10-27T01:44:24.019Z,15.797674428929259
2022-10-27T01:47:16.865Z,15.771981787012283
2022-10-27T01:51:16.128Z,15.770697155107428
2022-10-27T01:54:18.922Z,15.777120314813601
2022-10-27T01:57:26.503Z,15.77776263080923
2022-10-27T02:01:28.035Z,15.856767532950562
2022-10-27T02:04:25.270Z,15.76620094358368
2022-10-27T02:07:27.002Z,15.751427678717391
2022-10-27T02:11:15.730Z,15.737296731965852
2022-10-27T02:14:18.082Z,15.621679977580879
2022-10-27T02:17:20.893Z,15.605622106680311
2022-10-27T02:21:19.465Z,15.610760625059266
2022-10-27T02:24:17.179Z,15.525332794810037
2022-10-27T02:27:21.725Z,15.484867008557558
2022-10-27T02:31:19.522Z,15.45788982774975
2022-10-27T02:34:17.700Z,15.369892888968844
2022-10-27T02:37:20.240Z,15.383381465286948
2022-10-27T02:41:16.136Z,15.412927877562833
2022-10-27T02:44:16.231Z,15.35768894069479
2022-10-27T02:47:16.651Z,15.35768894069479
2022-10-27T02:51:15.787Z,15.35511968863575
2022-10-27T02:54:16.132Z,15.331354110538905
2022-10-27T02:57:18.170Z,15.292173035917585
2022-10-27T03:01:15.997Z,15.300523099582005
2022-10-27T03:04:16.122Z,15.333281049071593
2022-10-27T03:07:16.565Z,15.313369352874087
2022-10-27T03:11:15.899Z,15.36539669730846
2022-10-27T03:14:16.235Z,15.333281049071593
2022-10-27T03:17:17.183Z,15.350623497707511
2022-10-27T03:21:16.275Z,15.335207987645209
2022-10-27T03:24:16.281Z,15.315296291024788
2022-10-27T03:27:16.950Z,15.328142546408708
2022-10-27T03:31:16.438Z,15.346769619946372
2022-10-27T03:34:18.929Z,15.296669223949085
2022-10-27T03:37:16.900Z,15.291530723359847
2022-10-27T03:41:16.100Z,15.33071179770377
2022-10-27T03:44:16.575Z,15.349338871768941
2022-10-27T03:47:16.483Z,15.293457661046705
2022-10-27T03:51:16.805Z,15.263911287679003
2022-10-27T03:54:17.000Z,15.209957065488926
2022-10-27T03:57:16.811Z,15.204818569810959
2022-10-27T04:01:16.098Z,15.188118460867553
2022-10-27T04:04:16.502Z,15.13994508690821
2022-10-27T04:07:16.746Z,15.081494760851275
2022-10-27T04:11:16.543Z,15.092414049671879
2022-10-27T04:14:16.847Z,15.05194845651422
2022-10-27T04:17:17.273Z,15.077640894522483
2022-10-27T04:21:16.482Z,15.04680996978568
2022-10-27T04:24:16.246Z,15.019832919235705
2022-10-27T04:27:16.681Z,14.982578910235315
2022-10-27T04:31:16.836Z,14.955601878784728
2022-10-27T04:34:17.142Z,14.917063276342015
2022-10-27T04:37:16.982Z,14.942113366067588
2022-10-27T04:41:16.278Z,14.922844065664776
2022-10-27T04:44:16.243Z,14.872743903771426
2022-10-27T04:47:16.802Z,14.813009131519356
2022-10-27T04:51:19.264Z,14.850263070888833
2022-10-27T04:54:16.271Z,14.870174665445756
2022-10-27T04:57:16.041Z,14.865036189012699
2022-10-27T05:01:16.225Z,14.880451619184987
2022-10-27T05:04:16.253Z,14.81108220403703
2022-10-27T05:07:16.307Z,14.84769383319981
2022-10-27T05:11:16.570Z,14.825213006524518
2022-10-27T05:14:16.010Z,14.839343811212984
2022-10-27T05:17:19.496Z,14.831636099291881
2022-10-27T05:21:15.682Z,14.83035148070203
2022-10-27T05:24:16.178Z,14.829066862130366
2022-10-27T05:27:16.179Z,14.848336142615244
2022-10-27T05:31:15.852Z,14.838701501861214
2022-10-27T05:34:16.270Z,14.816220677414185
2022-10-27T05:37:16.773Z,14.787316768453456
2022-10-27T05:41:16.119Z,14.818147605005652
2022-10-27T05:44:16.417Z,14.736574372773703
2022-10-27T05:47:16.322Z,14.716020499055684
2022-10-27T05:51:19.258Z,14.732720521096871
2022-10-27T05:54:17.022Z,14.706385872353348
2022-10-27T05:57:16.656Z,14.673628149218803
2022-10-27T06:01:24.198Z,14.721801275568215
2022-10-27T06:04:18.383Z,14.717305116026637
2022-10-27T06:07:18.347Z,14.701889713575747
2022-10-27T06:11:15.870Z,14.762909030280207
2022-10-27T06:14:16.807Z,14.775112898546013
2022-10-27T06:17:16.268Z,14.772543662985209
2022-10-27T06:21:17.399Z,14.813651440689227
2022-10-27T06:24:17.032Z,14.8194322234227
2022-10-27T06:27:16.786Z,14.845766904980792
2022-10-27T06:31:16.222Z,14.854116927558788
2022-10-27T06:34:16.356Z,14.883020857801693
2022-10-27T06:37:16.392Z,14.838701501861214
2022-10-27T06:41:17.829Z,14.893297812996115
2022-10-27T06:44:16.027Z,14.929909475337263
2022-10-27T06:47:15.994Z,14.944682606430524
2022-10-27T06:51:16.277Z,14.971017324345667
2022-10-27T06:54:16.684Z,14.99927898134374
2022-10-27T06:57:17.236Z,14.99863667085965
2022-10-27T07:01:15.937Z,15.047452280610832
2022-10-27T07:04:16.286Z,15.10718720722689
2022-10-27T07:07:16.057Z,15.142514332873635
2022-10-27T07:11:15.696Z,15.229868738989989
2022-10-27T07:14:16.686Z,15.291530723359847
2022-10-27T07:17:16.296Z,15.380169899315025
2022-10-27T07:21:16.283Z,15.494501717932962
2022-10-27T07:24:16.740Z,15.56579859911144
2022-10-27T07:27:16.459Z,15.652511097677143
2022-10-27T07:31:22.097Z,15.7796895788234
2022-10-27T07:34:17.868Z,15.867686915080776
2022-10-27T07:37:17.661Z,15.957611288482804
2022-10-27T07:41:15.831Z,16.08093628837123
2022-10-27T07:44:16.105Z,16.179211017676515
2022-10-27T07:47:15.952Z,16.295470802219644
2022-10-27T07:51:16.552Z,16.378972396857353
2022-10-27T07:54:16.728Z,16.48559762173245
2022-10-27T07:57:16.685Z,16.560749210936137
2022-10-27T08:01:16.087Z,16.6236967438178
2022-10-27T08:04:16.610Z,16.67957877389017
2022-10-27T08:07:20.331Z,16.765007690990114
2022-10-27T08:11:16.985Z,16.918523014849416
2022-10-27T08:14:16.604Z,17.03863769623795
2022-10-27T08:17:16.860Z,17.115074394462862
2022-10-27T08:21:16.058Z,17.282079169260395
2022-10-27T08:24:16.037Z,17.377143562980926
2022-10-27T08:27:16.586Z,17.4985435078911
2022-10-27T08:31:16.003Z,17.631505538699276
2022-10-27T08:37:16.521Z,17.833839437712687
2022-10-27T08:41:25.119Z,18.019473157828905
2022-10-27T08:44:23.385Z,18.136377633226584
2022-10-27T08:47:21.119Z,18.269340598772487
2022-10-27T08:51:19.456Z,18.424785472219174
2022-10-27T08:57:24.120Z,18.774858579807916
2022-10-27T09:01:31.007Z,19.005457933541855
2022-10-27T09:04:28.943Z,19.157692368458083
2022-10-27T09:07:27.072Z,19.329197290981483
2022-10-27T09:11:26.463Z,19.534746688894757
2022-10-27T09:14:44.118Z,19.738369520335983
2022-10-27T09:17:23.258Z,19.912444921517544
2022-10-27T09:21:19.519Z,20.241968643399012
2022-10-27T09:24:20.556Z,20.3967745477451
2022-10-27T09:27:16.789Z,20.604253414669074
2022-10-27T09:31:21.404Z,20.876610294502463
2022-10-27T09:34:21.155Z,21.112353819888902
2022-10-27T09:37:19.252Z,21.256241177261927
2022-10-27T09:41:18.903Z,21.50162103627672
2022-10-27T09:44:22.013Z,21.69497055493157
2022-10-27T09:47:21.875Z,21.90052531231522
2022-10-27T09:51:21.631Z,22.151688163594464
2022-10-27T09:54:29.844Z,22.345039067464313
2022-10-27T09:57:20.499Z,22.591064235153407
2022-10-27T10:01:16.779Z,22.843513729880577
2022-10-27T10:04:19.986Z,22.972629391784086
2022-10-27T10:07:31.720Z,23.11330785941427
2022-10-27T10:11:19.583Z,23.341991130676252
2022-10-27T10:14:21.973Z,23.505795513508293
2022-10-27T10:17:21.352Z,23.69272558224038
2022-10-27T10:21:15.948Z,23.89186113062642
2022-10-27T10:24:18.960Z,24.03960714247223
2022-10-27T10:27:25.963Z,24.17836013785709
2022-10-27T10:31:24.003Z,24.317755721863158
2022-10-27T10:34:31.295Z,24.46807193719951
2022-10-27T10:37:37.789Z,24.60682558774797
2022-10-27T10:41:18.143Z,24.74622182995081
2022-10-27T10:44:17.603Z,24.899750657873756
2022-10-27T10:47:23.768Z,24.992895889282227
2022-10-27T10:54:23.656Z,25.289676505609897
2022-10-27T10:57:32.965Z,25.41237180590406
2022-10-27T11:01:17.072Z,25.61665021316885
2022-10-27T11:04:21.295Z,25.782385862618774
2022-10-27T11:07:22.264Z,25.90765137991402
2022-10-27T11:11:20.773Z,26.118997183128613
2022-10-27T11:14:17.107Z,26.311714150068383
2022-10-27T11:17:19.665Z,26.426059743911264
2022-10-27T11:21:25.771Z,26.663744866292927
2022-10-27T11:24:22.392Z,26.778733297590225
2022-10-27T11:27:21.353Z,26.851323834830055
2022-10-27T11:31:22.939Z,27.071665378719626
2022-10-27T11:34:27.543Z,27.212350201166647
2022-10-27T11:37:22.435Z,27.366525599528632
2022-10-27T11:41:25.918Z,27.555390819489638
2022-10-27T11:44:26.101Z,27.669095580245266
2022-10-27T11:47:23.824Z,27.7416868297013
2022-10-27T11:51:23.157Z,27.874021469276432
2022-10-27T11:54:18.011Z,28.003786691591905
2022-10-27T11:57:39.615Z,28.153466609172757
2022-10-27T12:01:37.811Z,28.260105671009295
2022-10-27T12:04:32.867Z,28.292868299508065
2022-10-27T12:11:25.701Z,28.46567530045031
2022-10-27T12:14:26.329Z,28.578738795130995
2022-10-27T12:17:23.592Z,28.677669468527892
2022-10-27T12:21:22.029Z,28.733558922600878
2022-10-27T12:24:23.828Z,28.78559396250639
2022-10-27T12:27:21.363Z,28.878743182526613
2022-10-27T12:31:22.239Z,28.880028000022957
2022-10-27T12:34:20.342Z,28.984740687127122
2022-10-27T12:37:25.003Z,29.02778213342908
2022-10-27T12:41:26.668Z,29.126713296343315
2022-10-27T12:44:26.101Z,29.187099903335273
2022-10-27T12:47:32.519Z,29.225644567105427
2022-10-27T12:51:27.855Z,29.25134101871381
2022-10-27T12:54:31.588Z,29.29887947337056
2022-10-27T12:57:29.802Z,29.306588414310045
2022-10-27T13:01:29.165Z,29.33806659660913
2022-10-27T13:04:51.766Z,29.372114438734663
2022-10-27T13:11:47.691Z,29.380465798188016
2022-10-27T13:14:41.508Z,29.422865019575692
2022-10-27T13:17:26.103Z,29.39074439549331
2022-10-27T13:21:21.140Z,29.361193431378343
2022-10-27T13:24:26.697Z,29.4312163836993
2022-10-27T13:27:21.298Z,29.443422224954702
2022-10-27T13:31:22.010Z,29.37275685097302
2022-10-27T13:34:19.097Z,29.37596891223302
2022-10-27T13:37:43.860Z,29.43378603435349
2022-10-27T13:42:13.167Z,29.439567748591436
2022-10-27T13:44:27.191Z,29.456912893515344
2022-10-27T13:47:18.068Z,29.445349463197726
2022-10-27T13:52:08.825Z,29.38496268436584
2022-10-27T13:55:32.283Z,29.350914837419985
2022-10-27T14:01:27.078Z,29.18453025966601
2022-10-27T14:04:29.226Z,29.1896695470773
2022-10-27T14:07:16.950Z,29.169754809979715
2022-10-27T14:11:18.644Z,29.16333070217079
2022-10-27T14:14:24.226Z,29.09780482849492
2022-10-27T14:17:18.077Z,28.987952734653753
2022-10-27T14:21:20.366Z,28.8993002646509
2022-10-27T14:24:20.342Z,28.873603912723137
2022-10-27T14:27:19.037Z,28.844053117001113
2022-10-27T14:31:18.980Z,28.788806002984437
2022-10-27T14:34:21.594Z,28.807435839999016
2022-10-27T14:37:19.476Z,28.721353176819683
2022-10-27T14:41:20.211Z,28.61085913181305
2022-10-27T14:44:23.710Z,28.52606146758335
2022-10-27T14:47:19.250Z,28.45025756208961
2022-10-27T14:51:18.116Z,28.368029668403686
2022-10-27T14:54:18.852Z,28.305073987659124
2022-10-27T14:57:27.521Z,28.244045563320196
2022-10-27T15:01:25.980Z,28.171453912022116
2022-10-27T15:04:20.833Z,28.08601425524039
2022-10-27T15:07:18.209Z,27.932480036560445
2022-10-27T15:11:18.610Z,27.870809461176396
2022-10-27T15:14:17.122Z,27.768667662885218
2022-10-27T15:17:21.031Z,27.62091557948015
2022-10-27T15:21:19.133Z,27.491793303567466
2022-10-27T15:24:21.135Z,27.29393465016947
2022-10-27T15:27:16.955Z,27.19050870758083
2022-10-27T15:31:16.694Z,27.087082882867254
2022-10-27T15:37:31.794Z,26.741474460318933
2022-10-27T15:41:21.449Z,26.610426257650033
2022-10-27T15:44:26.852Z,26.442761921363946
2022-10-27T15:47:47.804Z,26.262250089511507
2022-10-27T15:51:18.139Z,26.095228785557264
2022-10-27T15:54:22.194Z,25.965466292371637
2022-10-27T15:57:30.992Z,25.766326193419808
2022-10-27T16:01:32.037Z,25.56140506395177
2022-10-27T16:04:32.601Z,25.404663195765988
2022-10-27T16:11:17.615Z,25.04492878431274
2022-10-27T16:14:17.263Z,24.951783499494194
2022-10-27T16:17:20.042Z,24.63252073150297
2022-10-27T16:21:23.999Z,24.43659544414586
2022-10-27T16:24:19.791Z,24.296557301272696
2022-10-27T16:27:21.765Z,24.082003868552057
2022-10-27T16:31:18.537Z,23.895715371357802
2022-10-27T16:34:19.678Z,23.796789911075393
2022-10-27T16:37:20.697Z,23.729340795444386
2022-10-27T16:41:23.428Z,23.60793251365103
2022-10-27T16:44:16.902Z,23.387599380113624
2022-10-27T16:47:18.863Z,23.27325761497059
2022-10-27T16:51:17.307Z,23.16533967666628
2022-10-27T16:54:17.184Z,22.98226489630797
2022-10-27T16:57:16.412Z,22.871135472949483
2022-10-27T17:01:18.415Z,22.804329411114395
2022-10-27T17:04:17.389Z,22.607123342398335
2022-10-27T17:07:17.136Z,22.5338938364308
2022-10-27T17:11:17.098Z,22.375872472284026
2022-10-27T17:14:16.480Z,22.243545850605006
2022-10-27T17:17:16.246Z,22.13370205394758
2022-10-27T17:21:16.235Z,22.189587477735767
2022-10-27T17:24:16.816Z,22.02193130963069
2022-10-27T17:27:16.584Z,21.857487246445906
2022-10-27T17:31:20.967Z,21.896028797015695
2022-10-27T17:34:17.998Z,21.693685839162207
2022-10-27T17:37:16.434Z,21.609536995884355
2022-10-27T17:41:16.855Z,21.481707986328182
2022-10-27T17:44:17.562Z,21.142544451851062
2022-10-27T17:47:16.967Z,21.120062065392357
2022-10-27T17:51:18.784Z,21.14768328382379
2022-10-27T17:54:17.875Z,20.99737256886583
2022-10-27T17:57:17.118Z,20.956904341997962
2022-10-27T18:01:18.469Z,20.95883140001097
2022-10-27T18:04:16.555Z,20.850916214310566
2022-10-27T18:07:17.303Z,20.62545097267657
2022-10-27T18:11:18.267Z,20.51946323216107
2022-10-27T18:14:18.085Z,20.320335084788166
2022-10-27T18:17:16.552Z,20.382642877472335
2022-10-27T18:21:17.599Z,20.442381316820683
2022-10-27T18:24:17.915Z,20.266377855590328
2022-10-27T18:27:16.767Z,20.241326295798444
2022-10-27T18:31:19.242Z,20.098725241035662
2022-10-27T18:34:17.260Z,20.046052836046236
2022-10-27T18:37:17.057Z,19.806458013871815
2022-10-27T18:41:17.526Z,19.783333614110962
2022-10-27T18:44:18.128Z,19.679916231741025
2022-10-27T18:47:17.455Z,19.47115479416825
2022-10-27T18:51:17.072Z,19.49877551064501
2022-10-27T18:54:16.531Z,19.363883719219395
2022-10-27T18:57:17.437Z,19.2110065980386
2022-10-27T19:01:16.545Z,19.247620002762414
2022-10-27T19:04:16.476Z,19.19237873113052
2022-10-27T19:07:16.445Z,19.13199877502775
2022-10-27T19:11:18.192Z,19.160904068148465
2022-10-27T19:14:16.913Z,19.013166000056753
2022-10-27T19:17:16.818Z,18.982333737926183
2022-10-27T19:21:18.459Z,18.977837367240863
2022-10-27T19:24:16.690Z,18.907180142877404
2022-10-27T19:27:16.470Z,18.884698310300973
2022-10-27T19:31:21.703Z,18.76715053353837
2022-10-27T19:34:19.512Z,18.676581038922542
2022-10-27T19:37:20.909Z,18.713194227986968
2022-10-27T19:41:18.746Z,18.656668608967447
2022-10-27T19:44:16.645Z,18.541690469857805
2022-10-27T19:47:17.750Z,18.561602874578966
2022-10-27T19:51:20.055Z,18.629690485031823
2022-10-27T19:54:18.782Z,18.485807292853497
2022-10-27T19:57:17.267Z,18.449836530461106
2022-10-27T20:01:19.411Z,18.52627441759114
2022-10-27T20:04:18.355Z,18.38688773058966
2022-10-27T20:07:17.084Z,18.43313582419796
2022-10-27T20:11:19.031Z,18.31944263633495
2022-10-27T20:14:17.074Z,18.230158255342396
2022-10-27T20:17:17.972Z,18.180698600091365
2022-10-27T20:21:16.668Z,18.187121930418744
2022-10-27T20:24:17.684Z,18.16528260916102
2022-10-27T20:27:17.523Z,18.1415162949419
2022-10-27T20:31:16.083Z,18.0811370381678
2022-10-27T20:34:16.657Z,17.98735657008401
2022-10-27T20:37:16.022Z,17.961663308073547
2022-10-27T20:41:19.467Z,17.97065594894957
2022-10-27T20:44:16.766Z,17.919269441663346
2022-10-27T20:47:16.726Z,17.85567867918953
2022-10-27T20:51:16.514Z,17.82163515800057
2022-10-27T20:54:16.252Z,17.777956696692854
2022-10-27T20:57:16.177Z,17.729139617762122
2022-10-27T21:01:26.511Z,17.76061378406457
2022-10-27T21:04:17.674Z,17.573695936144578
2022-10-27T21:07:16.635Z,17.567914977915006
2022-10-27T21:11:16.196Z,17.58590018250552
2022-10-27T21:14:16.880Z,17.526163623860338
2022-10-27T21:17:16.298Z,17.461288481066095
2022-10-27T21:21:17.103Z,17.50496678992431
2022-10-27T21:24:17.652Z,17.382282181695338
2022-10-27T21:27:16.844Z,17.406048297035248
2022-10-27T21:31:16.541Z,17.429814418600653
2022-10-27T21:34:16.697Z,17.344384875518244
2022-10-27T21:37:16.800Z,17.321261103254166
2022-10-27T21:41:18.352Z,17.328326699709578
2022-10-27T21:44:17.088Z,17.292998722934954
2022-10-27T21:47:16.477Z,17.285933129230763
2022-10-27T21:51:16.291Z,17.25831308639399
2022-10-27T21:54:16.567Z,17.09773160854538
2022-10-27T21:57:16.699Z,17.13755578854916
2022-10-27T22:01:18.705Z,17.057265120963347
2022-10-27T22:04:16.193Z,17.06240372156062
2022-10-27T22:07:16.129Z,16.971193604223664
2022-10-27T22:11:17.528Z,17.03157212234255
2022-10-27T22:14:16.496Z,16.978901497916375
2022-10-27T22:17:16.246Z,16.944215981456
2022-10-27T22:21:48.160Z,16.88447984530294
2022-10-27T22:24:17.149Z,16.882552873823805
2022-10-27T22:27:18.349Z,16.835663247112915
2022-10-27T22:31:18.361Z,16.853648306548074
2022-10-27T22:34:17.778Z,16.730964579046486
2022-10-27T22:37:16.173Z,16.771430921091177
2022-10-27T22:41:16.129Z,16.748949617726975
2022-10-27T22:44:16.219Z,16.67700948439633
2022-10-27T22:51:21.458Z,16.75537284669117
2022-10-27T22:54:16.764Z,16.702060060064923
2022-10-27T22:57:17.052Z,16.692425222450765
2022-10-27T23:01:21.599Z,16.732891547306007
2022-10-27T23:04:18.628Z,16.700775414990584
2022-10-27T23:07:24.166Z,16.760511430189943
2022-10-27T23:11:16.250Z,16.747022649126393
2022-10-27T23:14:17.020Z,16.719402770348825
2022-10-27T23:17:17.050Z,16.705913995397076
2022-10-27T23:21:16.733Z,16.775927182432497
2022-10-27T23:24:16.776Z,16.66223607121874
2022-10-27T23:27:16.721Z,16.69563683487513
2022-10-27T23:31:16.620Z,16.706556317968353
2022-10-27T23:34:16.594Z,16.637827828630634
2022-10-27T23:37:16.523Z,16.54597581668968
2022-10-27T23:41:17.185Z,16.612134948789844
2022-10-27T23:44:16.731Z,16.547260459572136
2022-10-27T23:47:17.181Z,16.508078859840406
2022-10-27T23:51:16.689Z,16.49780172172841
2022-10-27T23:54:16.525Z,16.39567272500717
2022-10-27T23:57:16.539Z,16.409803774304237
